createdAt,value
2023-04-16T00:02:23.150Z,101940.66
2023-04-16T00:04:55.343Z,101954.16
2023-04-16T00:07:27.315Z,101954.69
2023-04-16T00:09:59.668Z,101924.81
2023-04-16T00:12:31.635Z,101959.94
2023-04-16T00:15:03.960Z,101950.66
2023-04-16T00:17:36.058Z,101942.22
2023-04-16T00:20:09.322Z,101958.56
2023-04-16T00:22:41.272Z,101955.94
2023-04-16T00:25:14.240Z,101958.63
2023-04-16T00:27:46.227Z,101963.31
2023-04-16T00:30:18.265Z,101918.84
2023-04-16T00:32:50.290Z,101956.84
2023-04-16T00:35:22.204Z,101957.81
2023-04-16T00:37:54.234Z,101949.44
2023-04-16T00:40:31.422Z,101954.72
2023-04-16T00:43:03.405Z,101936.59
2023-04-16T00:45:36.446Z,101948.38
2023-04-16T00:48:10.651Z,101955.31
2023-04-16T00:50:42.760Z,101952.84
2023-04-16T00:53:16.189Z,101954.97
2023-04-16T00:55:48.115Z,101947.97
2023-04-16T00:58:20.417Z,101954.06
2023-04-16T01:00:52.360Z,101949.19
2023-04-16T01:03:32.452Z,101951.69
2023-04-16T01:06:05.280Z,101932.31
2023-04-16T01:08:37.783Z,101946.91
2023-04-16T01:11:11.327Z,101955.94
2023-04-16T01:13:43.349Z,101949.03
2023-04-16T01:16:15.349Z,101912.75
2023-04-16T01:18:47.316Z,101926.88
2023-04-16T01:21:19.329Z,101951.03
2023-04-16T01:23:51.311Z,101952.19
2023-04-16T01:26:23.267Z,101948.66
2023-04-16T01:28:55.394Z,101943.69
2023-04-16T01:31:27.543Z,101949.19
2023-04-16T01:33:59.535Z,101950.91
2023-04-16T01:36:31.491Z,101954.38
2023-04-16T01:39:04.367Z,101950.69
2023-04-16T01:41:36.472Z,101953.41
2023-04-16T01:44:08.430Z,101953.41
2023-04-16T01:46:40.679Z,101951.69
2023-04-16T01:49:12.687Z,101953.31
2023-04-16T01:51:44.686Z,101961.19
2023-04-16T01:54:16.681Z,101953.41
2023-04-16T01:56:48.663Z,101960.44
2023-04-16T01:59:20.724Z,101955.78
2023-04-16T02:01:53.030Z,101966.94
2023-04-16T02:04:25.093Z,101967.03
2023-04-16T02:06:57.402Z,101959.16
2023-04-16T02:09:29.372Z,101956.84
2023-04-16T02:12:03.306Z,101952.81
2023-04-16T02:14:35.352Z,101953.81
2023-04-16T02:17:07.338Z,101950.00
2023-04-16T02:19:39.320Z,101952.50
2023-04-16T02:22:11.245Z,101947.06
2023-04-16T02:24:43.143Z,101951.34
2023-04-16T02:27:15.042Z,101951.84
2023-04-16T02:29:46.984Z,101950.84
2023-04-16T02:32:18.922Z,101949.28
2023-04-16T02:34:51.149Z,101950.78
2023-04-16T02:37:23.602Z,101953.34
2023-04-16T02:39:56.049Z,101916.06
2023-04-16T02:42:28.544Z,101950.13
2023-04-16T02:45:00.510Z,101956.47
2023-04-16T02:47:32.449Z,101957.44
2023-04-16T02:50:04.897Z,101958.50
2023-04-16T02:52:36.832Z,101962.94
2023-04-16T02:55:10.456Z,101962.34
2023-04-16T02:57:42.676Z,101965.22
2023-04-16T03:00:14.993Z,101967.44
2023-04-16T03:02:46.965Z,101967.44
2023-04-16T03:05:19.246Z,101957.59
2023-04-16T03:07:56.512Z,101972.47
2023-04-16T03:10:28.554Z,101951.34
2023-04-16T03:13:03.550Z,101965.66
2023-04-16T03:15:35.845Z,101973.63
2023-04-16T03:18:07.767Z,101973.78
2023-04-16T03:20:39.693Z,101984.13
2023-04-16T03:23:11.681Z,101983.38
2023-04-16T03:25:46.713Z,101987.31
2023-04-16T03:28:18.784Z,101976.31
2023-04-16T03:30:52.918Z,101981.72
2023-04-16T03:33:24.966Z,101984.34
2023-04-16T03:35:58.758Z,101987.78
2023-04-16T03:38:30.996Z,101983.44
2023-04-16T03:41:02.950Z,101986.00
2023-04-16T03:43:34.902Z,101985.16
2023-04-16T03:46:06.927Z,101980.00
2023-04-16T03:48:38.873Z,101978.19
2023-04-16T03:51:11.094Z,101981.72
2023-04-16T03:53:43.036Z,101979.75
2023-04-16T03:56:14.961Z,101977.72
2023-04-16T03:58:46.950Z,101980.25
2023-04-16T04:01:18.923Z,101975.41
2023-04-16T04:03:51.213Z,101962.84
2023-04-16T04:06:23.392Z,101988.50
2023-04-16T04:08:55.450Z,101970.59
2023-04-16T04:11:27.351Z,101973.22
2023-04-16T04:13:59.500Z,101978.72
2023-04-16T04:16:32.846Z,101986.19
2023-04-16T04:19:04.886Z,102001.63
2023-04-16T04:21:36.767Z,101995.56
2023-04-16T04:24:08.705Z,101988.97
2023-04-16T04:26:40.937Z,101996.22
2023-04-16T04:29:14.268Z,101976.59
2023-04-16T04:31:46.242Z,101998.94
2023-04-16T04:34:18.822Z,101998.03
2023-04-16T04:36:51.118Z,101996.03
2023-04-16T04:39:23.301Z,102000.41
2023-04-16T04:41:55.367Z,102005.06
2023-04-16T04:44:27.434Z,102006.06
2023-04-16T04:46:59.375Z,101994.41
2023-04-16T04:49:32.156Z,102011.31
2023-04-16T04:52:04.206Z,102012.81
2023-04-16T04:54:36.393Z,102017.16
2023-04-16T04:57:08.948Z,102012.47
2023-04-16T04:59:40.910Z,102017.00
2023-04-16T05:02:13.297Z,102011.00
2023-04-16T05:04:45.511Z,102013.78
2023-04-16T05:07:17.427Z,102016.56
2023-04-16T05:09:49.355Z,102019.31
2023-04-16T05:12:21.459Z,102008.53
2023-04-16T05:14:53.448Z,102018.06
2023-04-16T05:17:25.363Z,102019.97
2023-04-16T05:19:57.361Z,102021.34
2023-04-16T05:22:29.296Z,102019.06
2023-04-16T05:25:01.404Z,102013.97
2023-04-16T05:27:33.428Z,102026.94
2023-04-16T05:30:06.306Z,102018.06
2023-04-16T05:32:41.395Z,102030.88
2023-04-16T05:35:14.790Z,102014.75
2023-04-16T05:37:48.724Z,102037.78
2023-04-16T05:40:20.950Z,102038.84
2023-04-16T05:42:52.963Z,102048.44
2023-04-16T05:45:26.138Z,102044.09
2023-04-16T05:47:59.882Z,102044.84
2023-04-16T05:50:31.813Z,102052.78
2023-04-16T05:53:07.374Z,102048.44
2023-04-16T05:55:39.327Z,102053.53
2023-04-16T05:58:11.272Z,102047.16
2023-04-16T06:00:43.295Z,102060.47
2023-04-16T06:03:15.553Z,102054.28
2023-04-16T06:05:47.590Z,102062.44
2023-04-16T06:08:19.980Z,102057.19
2023-04-16T06:10:51.967Z,102061.59
2023-04-16T06:13:23.872Z,102053.47
2023-04-16T06:15:55.960Z,102058.81
2023-04-16T06:18:28.031Z,102047.97
2023-04-16T06:21:00.345Z,102062.25
2023-04-16T06:23:32.306Z,102066.44
2023-04-16T06:26:05.682Z,102057.81
2023-04-16T06:28:37.667Z,102062.75
2023-04-16T06:31:09.687Z,102068.03
2023-04-16T06:33:41.712Z,102067.22
2023-04-16T06:36:13.696Z,102089.22
2023-04-16T06:38:45.740Z,102089.88
2023-04-16T06:41:17.817Z,102085.09
2023-04-16T06:43:49.749Z,102091.00
2023-04-16T06:46:21.745Z,102081.31
2023-04-16T06:48:53.750Z,102091.59
2023-04-16T06:51:26.792Z,102095.22
2023-04-16T06:53:58.732Z,102100.72
2023-04-16T06:56:30.953Z,102095.28
2023-04-16T06:59:03.700Z,102102.25
2023-04-16T07:01:36.403Z,102103.00
2023-04-16T07:04:08.540Z,102101.19
2023-04-16T07:06:40.776Z,102111.22
2023-04-16T07:09:12.751Z,102099.72
2023-04-16T07:11:44.876Z,102116.84
2023-04-16T07:14:17.239Z,102105.97
2023-04-16T07:16:49.224Z,102112.41
2023-04-16T07:19:21.299Z,102120.59
2023-04-16T07:21:53.298Z,102124.00
2023-04-16T07:24:25.363Z,102120.28
2023-04-16T07:26:57.359Z,102126.53
2023-04-16T07:29:29.369Z,102130.81
2023-04-16T07:32:01.745Z,102138.03
2023-04-16T07:34:33.722Z,102130.47
2023-04-16T07:37:05.876Z,102132.31
2023-04-16T07:39:39.058Z,102141.06
2023-04-16T07:42:11.398Z,102130.22
2023-04-16T07:44:43.942Z,102141.91
2023-04-16T07:47:16.241Z,102135.91
2023-04-16T07:49:48.178Z,102148.16
2023-04-16T07:52:20.637Z,102146.09
2023-04-16T07:54:52.678Z,102137.69
2023-04-16T07:57:24.639Z,102158.06
2023-04-16T07:59:56.580Z,102153.72
2023-04-16T08:02:28.880Z,102155.81
2023-04-16T08:05:01.002Z,102153.66
2023-04-16T08:07:34.565Z,102163.16
2023-04-16T08:10:07.903Z,102169.66
2023-04-16T08:12:40.773Z,102165.66
2023-04-16T08:15:12.733Z,102162.78
2023-04-16T08:17:45.095Z,102170.25
2023-04-16T08:20:19.087Z,102179.06
2023-04-16T08:22:51.338Z,102180.78
2023-04-16T08:25:24.725Z,102180.47
2023-04-16T08:27:56.694Z,102187.59
2023-04-16T08:30:28.867Z,102184.06
2023-04-16T08:33:01.323Z,102187.69
2023-04-16T08:35:33.898Z,102189.59
2023-04-16T08:38:07.493Z,102190.31
2023-04-16T08:40:41.952Z,102164.19
2023-04-16T08:43:17.534Z,102193.78
2023-04-16T08:45:49.670Z,102190.31
2023-04-16T08:48:23.426Z,102198.88
2023-04-16T08:50:56.208Z,102182.66
2023-04-16T08:53:38.759Z,102199.13
2023-04-16T08:56:13.002Z,102210.09
2023-04-16T08:58:48.826Z,102201.13
2023-04-16T09:01:22.229Z,102200.38
2023-04-16T09:03:54.953Z,102210.09
2023-04-16T09:06:28.557Z,102212.88
2023-04-16T09:09:04.681Z,102215.75
2023-04-16T09:11:38.968Z,102215.19
2023-04-16T09:14:12.192Z,102211.00
2023-04-16T09:16:49.384Z,102211.16
2023-04-16T09:19:22.540Z,102217.34
2023-04-16T09:21:54.556Z,102218.25
2023-04-16T09:24:26.851Z,102216.59
2023-04-16T09:27:00.559Z,102219.66
2023-04-16T09:29:38.012Z,102222.06
2023-04-16T09:32:12.125Z,102224.06
2023-04-16T09:35:01.155Z,102229.31
2023-04-16T09:37:33.220Z,102232.97
2023-04-16T09:40:06.228Z,102230.06
2023-04-16T09:42:38.355Z,102237.47
2023-04-16T09:45:11.009Z,102244.81
2023-04-16T09:47:46.349Z,102240.63
2023-04-16T09:50:20.452Z,102231.75
2023-04-16T09:52:52.500Z,102243.38
2023-04-16T09:55:27.862Z,102225.13
2023-04-16T09:58:01.667Z,102249.28
2023-04-16T10:00:33.730Z,102247.56
2023-04-16T10:03:07.243Z,102248.47
2023-04-16T10:05:39.639Z,102251.00
2023-04-16T10:08:13.696Z,102247.09
2023-04-16T10:10:45.871Z,102248.00
2023-04-16T10:13:19.339Z,102234.75
2023-04-16T10:15:51.527Z,102245.44
2023-04-16T10:18:24.045Z,102252.72
2023-04-16T10:20:57.559Z,102251.09
2023-04-16T10:23:30.161Z,102247.25
2023-04-16T10:26:02.862Z,102250.34
2023-04-16T10:28:35.770Z,102257.00
2023-04-16T10:31:09.796Z,102255.53
2023-04-16T10:33:44.279Z,102255.38
2023-04-16T10:36:23.793Z,102251.75
2023-04-16T10:39:00.875Z,102265.16
2023-04-16T10:41:33.739Z,102264.50
2023-04-16T10:44:10.016Z,102259.81
2023-04-16T10:46:44.913Z,102267.16
2023-04-16T10:49:23.533Z,102266.88
2023-04-16T10:51:58.361Z,102271.19
2023-04-16T10:54:32.117Z,102266.88
2023-04-16T10:57:12.270Z,102270.50
2023-04-16T10:59:45.414Z,102264.25
2023-04-16T11:02:19.565Z,102268.88
2023-04-16T11:04:51.936Z,102263.59
2023-04-16T11:07:35.149Z,102263.50
2023-04-16T11:10:13.470Z,102258.34
2023-04-16T11:12:48.906Z,102260.06
2023-04-16T11:15:21.931Z,102262.75
2023-04-16T11:17:54.027Z,102253.13
2023-04-16T11:20:28.436Z,102257.69
2023-04-16T11:23:00.421Z,102250.38
2023-04-16T11:25:34.328Z,102254.19
2023-04-16T11:28:06.432Z,102255.28
2023-04-16T11:30:40.128Z,102259.81
2023-04-16T11:33:12.662Z,102231.69
2023-04-16T11:35:46.097Z,102255.38
2023-04-16T11:38:19.229Z,102252.56
2023-04-16T11:40:54.072Z,102256.34
2023-04-16T11:43:27.155Z,102259.22
2023-04-16T11:46:10.286Z,102264.66
2023-04-16T11:48:55.575Z,102262.25
2023-04-16T11:51:27.537Z,102276.41
2023-04-16T11:53:59.514Z,102265.88
2023-04-16T11:56:36.319Z,102263.91
2023-04-16T11:59:17.052Z,102266.63
2023-04-16T12:01:52.864Z,102271.91
2023-04-16T12:04:29.420Z,102283.34
2023-04-16T12:07:14.775Z,102276.69
2023-04-16T12:09:46.690Z,102280.34
2023-04-16T12:12:32.535Z,102283.34
2023-04-16T12:15:05.296Z,102285.47
2023-04-16T12:17:38.894Z,102274.94
2023-04-16T12:20:15.842Z,102291.88
2023-04-16T12:22:49.854Z,102288.44
2023-04-16T12:25:25.050Z,102294.50
2023-04-16T12:27:58.104Z,102290.16
2023-04-16T12:30:31.011Z,102277.63
2023-04-16T12:33:19.864Z,102287.09
2023-04-16T12:35:52.544Z,102284.63
2023-04-16T12:38:25.708Z,102282.56
2023-04-16T12:40:58.423Z,102271.09
2023-04-16T12:43:30.446Z,102287.16
2023-04-16T12:46:04.314Z,102283.56
2023-04-16T12:48:36.716Z,102284.22
2023-04-16T12:51:08.680Z,102280.44
2023-04-16T12:53:40.744Z,102279.50
2023-04-16T12:56:12.687Z,102275.25
2023-04-16T12:58:44.667Z,102291.38
2023-04-16T13:01:16.609Z,102282.66
2023-04-16T13:03:49.688Z,102275.56
2023-04-16T13:06:21.959Z,102293.97
2023-04-16T13:08:54.003Z,102266.09
2023-04-16T13:11:26.129Z,102290.13
2023-04-16T13:13:58.285Z,102286.34
2023-04-16T13:16:30.265Z,102287.16
2023-04-16T13:19:02.158Z,102289.97
2023-04-16T13:21:34.564Z,102292.03
2023-04-16T13:24:07.010Z,102292.34
2023-04-16T13:26:38.988Z,102297.91
2023-04-16T13:29:11.709Z,102279.97
2023-04-16T13:31:43.937Z,102301.84
2023-04-16T13:34:15.982Z,102295.69
2023-04-16T13:36:48.020Z,102294.00
2023-04-16T13:39:20.080Z,102288.72
2023-04-16T13:41:52.008Z,102263.41
2023-04-16T13:44:23.922Z,102278.00
2023-04-16T13:46:56.226Z,102280.38
2023-04-16T13:49:28.333Z,102274.56
2023-04-16T13:52:01.030Z,102266.84
2023-04-16T13:54:33.804Z,102275.38
2023-04-16T13:57:06.064Z,102274.03
2023-04-16T13:59:38.296Z,102278.16
2023-04-16T14:02:11.236Z,102277.63
2023-04-16T14:04:43.207Z,102275.06
2023-04-16T14:07:15.782Z,102270.06
2023-04-16T14:09:47.736Z,102269.84
2023-04-16T14:12:19.927Z,102274.66
2023-04-16T14:14:51.940Z,102276.13
2023-04-16T14:17:23.894Z,102272.88
2023-04-16T14:19:56.359Z,102268.31
2023-04-16T14:22:28.336Z,102264.53
2023-04-16T14:25:01.115Z,102262.72
2023-04-16T14:27:34.308Z,102268.31
2023-04-16T14:30:07.407Z,102277.88
2023-04-16T14:32:39.396Z,102266.22
2023-04-16T14:35:11.368Z,102264.25
2023-04-16T14:37:43.790Z,102269.16
2023-04-16T14:40:16.087Z,102271.56
2023-04-16T14:42:48.049Z,102268.59
2023-04-16T14:45:20.363Z,102269.31
2023-04-16T14:47:52.393Z,102263.91
2023-04-16T14:50:24.395Z,102270.78
2023-04-16T14:52:56.543Z,102262.72
2023-04-16T14:55:28.545Z,102264.06
2023-04-16T14:58:01.005Z,102266.50
2023-04-16T15:00:35.634Z,102259.25
2023-04-16T15:03:07.922Z,102268.91
2023-04-16T15:05:39.928Z,102257.44
2023-04-16T15:08:12.235Z,102261.94
2023-04-16T15:10:45.806Z,102262.78
2023-04-16T15:13:18.002Z,102254.88
2023-04-16T15:15:50.525Z,102254.53
2023-04-16T15:18:22.691Z,102253.41
2023-04-16T15:20:55.570Z,102250.97
2023-04-16T15:23:27.746Z,102255.56
2023-04-16T15:25:59.730Z,102251.97
2023-04-16T15:28:31.849Z,102260.63
2023-04-16T15:31:03.836Z,102256.75
2023-04-16T15:33:35.932Z,102256.59
2023-04-16T15:36:07.886Z,102242.13
2023-04-16T15:38:39.921Z,102217.31
2023-04-16T15:41:11.971Z,102259.22
2023-04-16T15:43:43.925Z,102259.25
2023-04-16T15:46:16.361Z,102259.94
2023-04-16T15:48:48.420Z,102243.69
2023-04-16T15:51:20.553Z,102265.09
2023-04-16T15:53:53.508Z,102262.44
2023-04-16T15:56:25.912Z,102256.19
2023-04-16T15:58:57.919Z,102263.59
2023-04-16T16:01:29.894Z,102260.22
2023-04-16T16:04:01.993Z,102249.25
2023-04-16T16:06:34.403Z,102261.63
2023-04-16T16:09:06.454Z,102259.81
2023-04-16T16:11:38.442Z,102265.84
2023-04-16T16:14:10.905Z,102264.50
2023-04-16T16:16:42.891Z,102260.72
2023-04-16T16:19:15.195Z,102272.06
2023-04-16T16:21:47.120Z,102268.38
2023-04-16T16:24:19.563Z,102270.38
2023-04-16T16:26:51.527Z,102271.28
2023-04-16T16:29:25.457Z,102267.84
2023-04-16T16:31:57.994Z,102266.63
2023-04-16T16:34:37.192Z,102268.41
2023-04-16T16:37:09.265Z,102278.22
2023-04-16T16:39:41.441Z,102279.09
2023-04-16T16:42:14.190Z,102270.34
2023-04-16T16:44:49.676Z,102275.28
2023-04-16T16:47:22.161Z,102276.84
2023-04-16T16:49:54.868Z,102267.97
2023-04-16T16:52:27.170Z,102270.75
2023-04-16T16:54:59.230Z,102272.34
2023-04-16T16:57:31.212Z,102274.75
2023-04-16T17:00:08.163Z,102254.75
2023-04-16T17:02:41.073Z,102277.63
2023-04-16T17:05:13.606Z,102282.31
2023-04-16T17:07:45.921Z,102278.09
2023-04-16T17:10:21.522Z,102273.66
2023-04-16T17:12:53.536Z,102261.75
2023-04-16T17:15:25.733Z,102278.09
2023-04-16T17:17:57.754Z,102277.88
2023-04-16T17:20:29.957Z,102274.19
2023-04-16T17:23:01.884Z,102276.66
2023-04-16T17:25:34.227Z,102280.22
2023-04-16T17:28:06.147Z,102271.09
2023-04-16T17:30:38.199Z,102285.56
2023-04-16T17:33:10.358Z,102279.16
2023-04-16T17:35:42.310Z,102283.28
2023-04-16T17:38:14.375Z,102282.47
2023-04-16T17:40:46.370Z,102282.47
2023-04-16T17:43:18.295Z,102284.16
2023-04-16T17:45:50.609Z,102287.59
2023-04-16T17:48:22.566Z,102280.66
2023-04-16T17:50:54.617Z,102271.44
2023-04-16T17:53:26.717Z,102291.88
2023-04-16T17:55:58.638Z,102294.34
2023-04-16T17:58:35.163Z,102288.84
2023-04-16T18:01:07.336Z,102291.41
2023-04-16T18:03:40.235Z,102292.91
2023-04-16T18:06:12.408Z,102298.72
2023-04-16T18:08:44.355Z,102297.25
2023-04-16T18:11:16.287Z,102296.09
2023-04-16T18:13:48.681Z,102303.94
2023-04-16T18:16:20.759Z,102308.31
2023-04-16T18:18:52.756Z,102310.13
2023-04-16T18:21:24.843Z,102313.88
2023-04-16T18:23:56.873Z,102320.47
2023-04-16T18:26:29.997Z,102316.47
2023-04-16T18:29:02.295Z,102317.63
2023-04-16T18:31:35.013Z,102314.16
2023-04-16T18:34:07.264Z,102310.53
2023-04-16T18:36:39.204Z,102321.03
2023-04-16T18:39:11.198Z,102302.97
2023-04-16T18:41:44.592Z,102309.41
2023-04-16T18:44:17.402Z,102326.16
2023-04-16T18:46:49.520Z,102329.00
2023-04-16T18:49:21.754Z,102343.34
2023-04-16T18:51:55.915Z,102334.56
2023-04-16T18:54:28.009Z,102329.16
2023-04-16T18:57:00.871Z,102332.63
2023-04-16T18:59:33.157Z,102339.84
2023-04-16T19:02:05.330Z,102323.56
2023-04-16T19:04:38.237Z,102339.84
2023-04-16T19:07:10.325Z,102338.22
2023-04-16T19:09:42.293Z,102336.41
2023-04-16T19:12:14.219Z,102330.00
2023-04-16T19:14:46.135Z,102334.94
2023-04-16T19:17:18.163Z,102325.91
2023-04-16T19:19:50.195Z,102329.97
2023-04-16T19:22:22.144Z,102336.00
2023-04-16T19:24:54.761Z,102339.50
2023-04-16T19:27:29.485Z,102342.22
2023-04-16T19:30:01.388Z,102339.44
2023-04-16T19:32:33.827Z,102341.91
2023-04-16T19:35:06.552Z,102331.06
2023-04-16T19:37:38.526Z,102338.06
2023-04-16T19:40:11.202Z,102339.94
2023-04-16T19:42:45.260Z,102342.34
2023-04-16T19:45:18.387Z,102341.25
2023-04-16T19:47:51.272Z,102350.03
2023-04-16T19:50:23.945Z,102345.31
2023-04-16T19:52:56.095Z,102359.56
2023-04-16T19:55:28.064Z,102350.03
2023-04-16T19:58:05.811Z,102350.34
2023-04-16T20:00:42.568Z,102347.69
2023-04-16T20:03:14.649Z,102353.63
2023-04-16T20:05:49.904Z,102363.56
2023-04-16T20:08:21.817Z,102360.28
2023-04-16T20:10:54.540Z,102359.72
2023-04-16T20:13:26.476Z,102360.53
2023-04-16T20:15:58.426Z,102363.94
2023-04-16T20:18:30.448Z,102367.06
2023-04-16T20:21:06.042Z,102358.25
2023-04-16T20:23:37.987Z,102359.06
2023-04-16T20:26:09.956Z,102352.88
2023-04-16T20:28:41.841Z,102358.16
2023-04-16T20:31:13.759Z,102367.78
2023-04-16T20:33:45.820Z,102350.25
2023-04-16T20:36:17.872Z,102362.50
2023-04-16T20:38:51.470Z,102340.28
2023-04-16T20:41:25.149Z,102352.81
2023-04-16T20:43:57.274Z,102349.28
2023-04-16T20:46:30.094Z,102337.66
2023-04-16T20:49:02.415Z,102347.91
2023-04-16T20:51:34.293Z,102343.56
2023-04-16T20:54:08.641Z,102338.28
2023-04-16T20:56:40.846Z,102334.69
2023-04-16T20:59:13.466Z,102339.78
2023-04-16T21:01:45.793Z,102349.34
2023-04-16T21:04:18.378Z,102336.94
2023-04-16T21:06:53.517Z,102358.44
2023-04-16T21:09:25.494Z,102361.78
2023-04-16T21:11:57.471Z,102356.28
2023-04-16T21:14:29.417Z,102361.72
2023-04-16T21:17:01.344Z,102361.06
2023-04-16T21:19:33.308Z,102360.91
2023-04-16T21:22:05.354Z,102351.56
2023-04-16T21:24:37.426Z,102359.75
2023-04-16T21:27:09.404Z,102363.19
2023-04-16T21:29:41.369Z,102374.91
2023-04-16T21:32:13.437Z,102364.38
2023-04-16T21:34:45.803Z,102368.13
2023-04-16T21:37:17.728Z,102364.56
2023-04-16T21:39:49.691Z,102362.69
2023-04-16T21:42:21.635Z,102354.78
2023-04-16T21:44:53.652Z,102366.41
2023-04-16T21:47:25.948Z,102354.31
2023-04-16T21:49:58.128Z,102370.13
2023-04-16T21:52:30.114Z,102366.41
2023-04-16T21:55:02.189Z,102354.66
2023-04-16T21:57:34.218Z,102364.38
2023-04-16T22:00:14.186Z,102362.38
2023-04-16T22:02:46.794Z,102359.59
2023-04-16T22:05:20.000Z,102367.72
2023-04-16T22:07:52.793Z,102366.00
2023-04-16T22:10:24.756Z,102366.00
2023-04-16T22:12:56.738Z,102339.81
2023-04-16T22:15:29.692Z,102357.78
2023-04-16T22:18:01.952Z,102355.94
2023-04-16T22:20:39.226Z,102345.09
2023-04-16T22:23:11.803Z,102352.81
2023-04-16T22:25:43.904Z,102359.06
2023-04-16T22:28:15.947Z,102351.34
2023-04-16T22:30:47.886Z,102353.16
2023-04-16T22:33:20.329Z,102344.13
2023-04-16T22:35:52.313Z,102355.03
2023-04-16T22:38:24.194Z,102351.50
2023-04-16T22:40:56.316Z,102356.97
2023-04-16T22:43:28.245Z,102355.78
2023-04-16T22:46:04.924Z,102349.53
2023-04-16T22:48:38.742Z,102349.69
2023-04-16T22:51:10.687Z,102352.19
2023-04-16T22:53:42.644Z,102353.63
2023-04-16T22:56:14.615Z,102354.44
2023-04-16T22:58:46.606Z,102357.09
2023-04-16T23:01:18.641Z,102355.53
2023-04-16T23:03:50.660Z,102316.75
2023-04-16T23:06:22.718Z,102360.09
2023-04-16T23:08:54.680Z,102365.84
2023-04-16T23:11:26.602Z,102359.56
2023-04-16T23:13:58.797Z,102366.47
2023-04-16T23:16:30.880Z,102328.44
2023-04-16T23:19:02.805Z,102359.56
2023-04-16T23:21:34.862Z,102368.22
2023-04-16T23:24:07.250Z,102373.22
2023-04-16T23:26:39.208Z,102364.50
2023-04-16T23:29:11.404Z,102363.59
2023-04-16T23:31:43.553Z,102358.41
2023-04-16T23:34:15.617Z,102366.31
2023-04-16T23:36:47.648Z,102356.53
2023-04-16T23:39:19.662Z,102362.50
2023-04-16T23:41:51.622Z,102355.25
2023-04-16T23:44:23.566Z,102364.97
2023-04-16T23:46:55.722Z,102364.00
2023-04-16T23:49:27.810Z,102358.56
2023-04-16T23:51:59.754Z,102364.72
2023-04-16T23:54:31.791Z,102363.84
2023-04-16T23:57:03.787Z,102358.72
2023-04-16T23:59:35.740Z,102363.84
